createdAt,value
2023-07-23T00:03:20.778Z,3.25
2023-07-23T00:13:26.068Z,3.78
2023-07-23T00:23:30.874Z,3.67
2023-07-23T00:33:35.805Z,3.67
2023-07-23T00:43:41.118Z,3.53
2023-07-23T00:53:46.507Z,3.90
2023-07-23T01:03:48.952Z,3.97
2023-07-23T01:13:56.691Z,3.90
2023-07-23T01:23:59.622Z,3.70
2023-07-23T01:34:06.564Z,4.05
2023-07-23T01:44:12.359Z,3.78
2023-07-23T01:54:21.386Z,3.90
2023-07-23T02:04:23.879Z,4.00
2023-07-23T02:14:32.297Z,4.05
2023-07-23T02:24:35.561Z,3.80
2023-07-23T02:34:38.025Z,3.58
2023-07-23T02:44:42.508Z,3.78
2023-07-23T02:54:48.215Z,3.50
2023-07-23T03:04:52.838Z,3.30
2023-07-23T03:14:57.285Z,3.80
2023-07-23T03:25:02.172Z,3.50
2023-07-23T03:35:07.563Z,3.58
2023-07-23T03:45:15.871Z,3.58
2023-07-23T03:55:18.248Z,4.03
2023-07-23T04:05:24.783Z,3.83
2023-07-23T04:15:27.390Z,3.80
2023-07-23T04:25:29.759Z,3.15
2023-07-23T04:35:34.404Z,3.65
2023-07-23T04:45:36.911Z,3.65
2023-07-23T04:55:48.461Z,3.40
2023-07-23T05:05:51.766Z,3.33
2023-07-23T05:15:54.073Z,3.22
2023-07-23T05:25:57.972Z,3.20
2023-07-23T05:36:02.620Z,3.40
2023-07-23T05:46:07.402Z,3.30
2023-07-23T05:56:10.730Z,2.95
2023-07-23T06:06:15.743Z,3.20
2023-07-23T06:16:20.373Z,3.17
2023-07-23T06:26:28.866Z,3.20
2023-07-23T06:36:31.258Z,3.85
2023-07-23T06:46:34.278Z,3.83
2023-07-23T06:56:39.774Z,3.47
2023-07-23T07:06:46.435Z,3.50
2023-07-23T07:16:50.382Z,3.67
2023-07-23T07:26:52.589Z,2.83
2023-07-23T07:36:55.201Z,2.85
2023-07-23T07:46:57.835Z,2.63
2023-07-23T07:57:04.210Z,2.20
2023-07-23T08:07:12.441Z,2.83
2023-07-23T08:17:19.004Z,2.63
2023-07-23T08:27:26.950Z,2.78
2023-07-23T08:37:34.968Z,2.60
2023-07-23T08:47:38.969Z,2.38
2023-07-23T08:57:48.362Z,2.42
2023-07-23T09:07:57.797Z,2.42
2023-07-23T09:18:01.299Z,2.70
2023-07-23T09:28:11.793Z,2.92
2023-07-23T09:38:19.924Z,2.38
2023-07-23T09:48:25.648Z,2.88
2023-07-23T09:58:29.952Z,2.80
2023-07-23T10:08:36.605Z,2.88
2023-07-23T10:18:45.633Z,2.70
2023-07-23T10:28:57.732Z,2.70
2023-07-23T10:39:23.407Z,2.97
2023-07-23T10:49:29.316Z,2.45
2023-07-23T10:59:34.212Z,2.92
2023-07-23T11:09:40.229Z,2.80
2023-07-23T11:19:47.642Z,2.88
2023-07-23T11:29:55.192Z,3.10
2023-07-23T11:40:03.283Z,3.10
2023-07-23T11:50:08.892Z,2.80
2023-07-23T12:00:23.918Z,2.70
2023-07-23T12:10:29.010Z,3.53
2023-07-23T12:20:35.048Z,3.05
2023-07-23T12:30:39.307Z,2.70
2023-07-23T12:40:46.335Z,3.15
2023-07-23T12:50:50.989Z,2.85
2023-07-23T13:00:55.613Z,2.78
2023-07-23T13:11:01.414Z,2.75
2023-07-23T13:21:04.688Z,3.22
2023-07-23T13:31:07.506Z,2.97
2023-07-23T13:41:12.551Z,2.88
2023-07-23T13:51:22.874Z,2.67
2023-07-23T14:01:26.236Z,3.58
2023-07-23T14:11:33.224Z,2.38
2023-07-23T14:21:36.568Z,2.90
2023-07-23T14:31:41.413Z,2.75
2023-07-23T14:41:46.203Z,2.90
2023-07-23T14:51:53.507Z,2.70
2023-07-23T15:01:57.632Z,2.78
2023-07-23T15:12:04.207Z,2.67
2023-07-23T15:22:09.987Z,2.90
2023-07-23T15:32:14.816Z,3.58
2023-07-23T15:42:19.779Z,2.70
2023-07-23T15:52:22.589Z,2.72
2023-07-23T16:02:27.433Z,2.97
2023-07-23T16:12:32.122Z,3.17
2023-07-23T16:22:38.412Z,3.08
2023-07-23T16:32:47.714Z,3.60
2023-07-23T16:42:56.368Z,3.42
2023-07-23T16:53:03.162Z,3.17
2023-07-23T17:03:07.048Z,4.10
2023-07-23T17:13:13.996Z,2.53
2023-07-23T17:23:17.189Z,3.10
2023-07-23T17:33:23.834Z,3.20
2023-07-23T17:43:28.991Z,2.95
2023-07-23T17:53:32.558Z,2.83
2023-07-23T18:03:39.023Z,3.42
2023-07-23T18:13:41.377Z,3.58
2023-07-23T18:23:45.842Z,3.50
2023-07-23T18:33:53.572Z,3.17
2023-07-23T18:43:58.713Z,3.15
2023-07-23T18:54:03.900Z,3.08
2023-07-23T19:04:06.346Z,3.60
2023-07-23T19:14:15.563Z,3.40
2023-07-23T19:24:18.102Z,3.92
2023-07-23T19:34:29.930Z,4.82
2023-07-23T19:44:35.435Z,3.85
2023-07-23T19:54:39.853Z,4.05
2023-07-23T20:04:46.199Z,4.68
2023-07-23T20:14:48.485Z,4.72
2023-07-23T20:24:58.030Z,5.05
2023-07-23T20:35:00.807Z,4.57
2023-07-23T20:45:02.993Z,4.63
2023-07-23T20:55:08.384Z,4.63
2023-07-23T21:05:15.637Z,5.15
2023-07-23T21:15:21.294Z,4.22
2023-07-23T21:25:28.123Z,4.57
2023-07-23T21:35:42.716Z,4.78
2023-07-23T21:45:50.409Z,4.70
2023-07-23T21:55:53.626Z,5.03
2023-07-23T22:06:00.647Z,5.43
2023-07-23T22:16:07.585Z,4.90
2023-07-23T22:26:09.947Z,4.90
2023-07-23T22:36:12.223Z,5.60
2023-07-23T22:46:14.742Z,4.70
2023-07-23T22:56:19.446Z,4.43
2023-07-23T23:06:24.265Z,3.58
2023-07-23T23:16:31.456Z,4.03
2023-07-23T23:26:33.976Z,4.28
2023-07-23T23:36:36.185Z,4.20
2023-07-23T23:46:38.443Z,3.80
2023-07-23T23:56:56.283Z,4.05
